sensor_id;sensor_type;location;lat;lon;timestamp;P1;durP1;ratioP1;P2;durP2;ratioP2
74375;SDS011;62812;55.188;61.302;2023-04-24T00:00:21;5.20;;;1.55;;
74375;SDS011;62812;55.188;61.302;2023-04-24T00:02:48;3.97;;;1.50;;
74375;SDS011;62812;55.188;61.302;2023-04-24T00:05:16;5.90;;;1.38;;
74375;SDS011;62812;55.188;61.302;2023-04-24T00:07:43;5.88;;;1.65;;
74375;SDS011;62812;55.188;61.302;2023-04-24T00:10:14;4.60;;;1.58;;
74375;SDS011;62812;55.188;61.302;2023-04-24T00:12:41;5.10;;;1.65;;
74375;SDS011;62812;55.188;61.302;2023-04-24T00:15:08;4.45;;;1.35;;
74375;SDS011;62812;55.188;61.302;2023-04-24T00:17:39;5.93;;;2.15;;
74375;SDS011;62812;55.188;61.302;2023-04-24T00:20:06;4.70;;;1.55;;
74375;SDS011;62812;55.188;61.302;2023-04-24T00:22:33;5.45;;;1.70;;
74375;SDS011;62812;55.188;61.302;2023-04-24T00:25:00;5.15;;;1.52;;
74375;SDS011;62812;55.188;61.302;2023-04-24T00:30:21;3.50;;;1.40;;
74375;SDS011;62812;55.188;61.302;2023-04-24T00:32:47;4.40;;;1.50;;
74375;SDS011;62812;55.188;61.302;2023-04-24T00:35:14;4.63;;;1.48;;
74375;SDS011;62812;55.188;61.302;2023-04-24T00:37:41;4.65;;;1.50;;
74375;SDS011;62812;55.188;61.302;2023-04-24T00:40:08;4.40;;;1.40;;
74375;SDS011;62812;55.188;61.302;2023-04-24T00:42:35;4.72;;;1.70;;
74375;SDS011;62812;55.188;61.302;2023-04-24T00:45:04;8.63;;;1.65;;
74375;SDS011;62812;55.188;61.302;2023-04-24T00:47:31;5.25;;;1.50;;
74375;SDS011;62812;55.188;61.302;2023-04-24T00:50:00;3.75;;;1.55;;
74375;SDS011;62812;55.188;61.302;2023-04-24T00:52:27;4.75;;;1.63;;
74375;SDS011;62812;55.188;61.302;2023-04-24T00:54:56;5.57;;;1.90;;
74375;SDS011;62812;55.188;61.302;2023-04-24T00:57:23;3.70;;;1.33;;
74375;SDS011;62812;55.188;61.302;2023-04-24T00:59:51;5.60;;;1.58;;
74375;SDS011;62812;55.188;61.302;2023-04-24T01:05:11;3.67;;;1.55;;
74375;SDS011;62812;55.188;61.302;2023-04-24T01:07:39;4.82;;;1.67;;
74375;SDS011;62812;55.188;61.302;2023-04-24T01:10:11;5.60;;;1.70;;
74375;SDS011;62812;55.188;61.302;2023-04-24T01:12:40;4.20;;;1.55;;
74375;SDS011;62812;55.188;61.302;2023-04-24T01:15:07;6.72;;;1.70;;
74375;SDS011;62812;55.188;61.302;2023-04-24T01:17:35;4.43;;;1.30;;
74375;SDS011;62812;55.188;61.302;2023-04-24T01:20:04;8.65;;;1.70;;
74375;SDS011;62812;55.188;61.302;2023-04-24T01:25:29;9.27;;;1.50;;
74375;SDS011;62812;55.188;61.302;2023-04-24T01:27:57;4.78;;;2.00;;
74375;SDS011;62812;55.188;61.302;2023-04-24T01:30:24;11.07;;;3.45;;
74375;SDS011;62812;55.188;61.302;2023-04-24T01:32:52;7.68;;;2.15;;
74375;SDS011;62812;55.188;61.302;2023-04-24T01:35:19;7.38;;;2.15;;
74375;SDS011;62812;55.188;61.302;2023-04-24T01:37:46;5.50;;;1.88;;
74375;SDS011;62812;55.188;61.302;2023-04-24T01:40:15;9.52;;;2.17;;
74375;SDS011;62812;55.188;61.302;2023-04-24T01:45:11;10.38;;;2.08;;
74375;SDS011;62812;55.188;61.302;2023-04-24T01:47:41;7.82;;;1.90;;
74375;SDS011;62812;55.188;61.302;2023-04-24T01:50:08;5.93;;;1.80;;
74375;SDS011;62812;55.188;61.302;2023-04-24T01:52:35;9.70;;;2.20;;
74375;SDS011;62812;55.188;61.302;2023-04-24T01:55:02;6.90;;;2.05;;
74375;SDS011;62812;55.188;61.302;2023-04-24T01:57:31;7.35;;;1.83;;
74375;SDS011;62812;55.188;61.302;2023-04-24T01:59:59;8.27;;;1.92;;
74375;SDS011;62812;55.188;61.302;2023-04-24T02:02:30;5.38;;;1.77;;
74375;SDS011;62812;55.188;61.302;2023-04-24T02:04:59;7.13;;;1.60;;
74375;SDS011;62812;55.188;61.302;2023-04-24T02:07:29;8.45;;;2.30;;
74375;SDS011;62812;55.188;61.302;2023-04-24T02:09:59;10.93;;;2.00;;
74375;SDS011;62812;55.188;61.302;2023-04-24T02:16:13;12.80;;;2.10;;
74375;SDS011;62812;55.188;61.302;2023-04-24T02:18:40;11.30;;;1.90;;
74375;SDS011;62812;55.188;61.302;2023-04-24T02:21:07;14.05;;;2.40;;
74375;SDS011;62812;55.188;61.302;2023-04-24T02:23:34;10.10;;;2.00;;
74375;SDS011;62812;55.188;61.302;2023-04-24T02:26:00;12.60;;;2.20;;
74375;SDS011;62812;55.188;61.302;2023-04-24T02:28:28;11.75;;;2.45;;
74375;SDS011;62812;55.188;61.302;2023-04-24T02:30:56;18.60;;;2.47;;
74375;SDS011;62812;55.188;61.302;2023-04-24T02:33:27;14.38;;;1.85;;
74375;SDS011;62812;55.188;61.302;2023-04-24T02:35:53;8.98;;;2.10;;
74375;SDS011;62812;55.188;61.302;2023-04-24T02:38:20;11.80;;;2.38;;
74375;SDS011;62812;55.188;61.302;2023-04-24T02:40:47;15.38;;;2.20;;
74375;SDS011;62812;55.188;61.302;2023-04-24T02:43:14;9.50;;;2.35;;
74375;SDS011;62812;55.188;61.302;2023-04-24T02:45:41;11.73;;;3.17;;
74375;SDS011;62812;55.188;61.302;2023-04-24T02:48:08;11.30;;;2.28;;
74375;SDS011;62812;55.188;61.302;2023-04-24T02:50:36;15.60;;;2.00;;
74375;SDS011;62812;55.188;61.302;2023-04-24T02:53:04;24.55;;;2.95;;
74375;SDS011;62812;55.188;61.302;2023-04-24T02:55:31;21.67;;;3.22;;
74375;SDS011;62812;55.188;61.302;2023-04-24T02:57:58;16.40;;;2.90;;
74375;SDS011;62812;55.188;61.302;2023-04-24T03:00:27;16.15;;;2.33;;
74375;SDS011;62812;55.188;61.302;2023-04-24T03:02:54;13.82;;;2.60;;
74375;SDS011;62812;55.188;61.302;2023-04-24T03:05:21;37.38;;;3.67;;
74375;SDS011;62812;55.188;61.302;2023-04-24T03:07:50;27.38;;;3.03;;
74375;SDS011;62812;55.188;61.302;2023-04-24T03:10:19;10.10;;;2.05;;
74375;SDS011;62812;55.188;61.302;2023-04-24T03:12:46;11.07;;;2.25;;
74375;SDS011;62812;55.188;61.302;2023-04-24T03:15:13;14.32;;;2.20;;
74375;SDS011;62812;55.188;61.302;2023-04-24T03:17:41;9.73;;;2.13;;
74375;SDS011;62812;55.188;61.302;2023-04-24T03:20:09;14.93;;;2.65;;
74375;SDS011;62812;55.188;61.302;2023-04-24T03:22:36;6.90;;;2.05;;
74375;SDS011;62812;55.188;61.302;2023-04-24T03:25:10;10.15;;;2.75;;
74375;SDS011;62812;55.188;61.302;2023-04-24T03:27:37;11.45;;;2.85;;
74375;SDS011;62812;55.188;61.302;2023-04-24T03:30:04;9.43;;;2.83;;
74375;SDS011;62812;55.188;61.302;2023-04-24T03:32:34;8.90;;;2.47;;
74375;SDS011;62812;55.188;61.302;2023-04-24T03:35:06;29.10;;;3.92;;
74375;SDS011;62812;55.188;61.302;2023-04-24T03:37:35;29.92;;;4.13;;
74375;SDS011;62812;55.188;61.302;2023-04-24T03:42:32;15.68;;;3.22;;
74375;SDS011;62812;55.188;61.302;2023-04-24T03:45:00;16.67;;;3.13;;
74375;SDS011;62812;55.188;61.302;2023-04-24T03:47:27;18.13;;;3.13;;
74375;SDS011;62812;55.188;61.302;2023-04-24T03:54:24;12.45;;;2.70;;
74375;SDS011;62812;55.188;61.302;2023-04-24T03:56:53;14.45;;;2.13;;
74375;SDS011;62812;55.188;61.302;2023-04-24T03:59:20;7.68;;;1.90;;
74375;SDS011;62812;55.188;61.302;2023-04-24T04:01:50;23.40;;;3.10;;
74375;SDS011;62812;55.188;61.302;2023-04-24T04:04:19;13.75;;;1.88;;
74375;SDS011;62812;55.188;61.302;2023-04-24T04:06:47;27.13;;;2.97;;
74375;SDS011;62812;55.188;61.302;2023-04-24T04:09:15;28.45;;;3.20;;
74375;SDS011;62812;55.188;61.302;2023-04-24T04:11:42;6.93;;;1.60;;
74375;SDS011;62812;55.188;61.302;2023-04-24T04:14:11;8.85;;;1.85;;
74375;SDS011;62812;55.188;61.302;2023-04-24T04:16:38;20.20;;;3.03;;
74375;SDS011;62812;55.188;61.302;2023-04-24T04:19:04;42.17;;;3.75;;
74375;SDS011;62812;55.188;61.302;2023-04-24T04:21:33;10.65;;;1.75;;
74375;SDS011;62812;55.188;61.302;2023-04-24T04:24:03;22.58;;;2.40;;
74375;SDS011;62812;55.188;61.302;2023-04-24T04:26:31;14.00;;;2.90;;
74375;SDS011;62812;55.188;61.302;2023-04-24T04:28:58;10.05;;;1.40;;
74375;SDS011;62812;55.188;61.302;2023-04-24T04:31:28;7.97;;;1.48;;
74375;SDS011;62812;55.188;61.302;2023-04-24T04:34:00;14.63;;;2.00;;
74375;SDS011;62812;55.188;61.302;2023-04-24T04:36:27;11.25;;;1.35;;
74375;SDS011;62812;55.188;61.302;2023-04-24T04:38:58;18.58;;;1.90;;
74375;SDS011;62812;55.188;61.302;2023-04-24T04:41:27;16.83;;;1.60;;
74375;SDS011;62812;55.188;61.302;2023-04-24T04:44:00;6.38;;;1.60;;
74375;SDS011;62812;55.188;61.302;2023-04-24T04:46:32;9.85;;;1.70;;
74375;SDS011;62812;55.188;61.302;2023-04-24T04:48:59;8.75;;;1.33;;
74375;SDS011;62812;55.188;61.302;2023-04-24T04:51:29;12.65;;;1.77;;
74375;SDS011;62812;55.188;61.302;2023-04-24T04:53:57;6.78;;;1.30;;
74375;SDS011;62812;55.188;61.302;2023-04-24T04:56:24;4.97;;;1.20;;
74375;SDS011;62812;55.188;61.302;2023-04-24T04:58:51;3.35;;;1.10;;
74375;SDS011;62812;55.188;61.302;2023-04-24T05:01:20;5.65;;;1.15;;
74375;SDS011;62812;55.188;61.302;2023-04-24T05:03:53;4.13;;;1.10;;
74375;SDS011;62812;55.188;61.302;2023-04-24T05:06:20;6.28;;;1.30;;
74375;SDS011;62812;55.188;61.302;2023-04-24T05:08:48;15.02;;;1.65;;
74375;SDS011;62812;55.188;61.302;2023-04-24T05:11:18;15.20;;;1.70;;
74375;SDS011;62812;55.188;61.302;2023-04-24T05:13:45;8.82;;;1.23;;
74375;SDS011;62812;55.188;61.302;2023-04-24T05:16:12;5.47;;;1.10;;
74375;SDS011;62812;55.188;61.302;2023-04-24T05:18:40;8.43;;;1.20;;
74375;SDS011;62812;55.188;61.302;2023-04-24T05:21:09;10.20;;;1.63;;
74375;SDS011;62812;55.188;61.302;2023-04-24T05:23:36;12.95;;;1.50;;
74375;SDS011;62812;55.188;61.302;2023-04-24T05:26:03;6.97;;;1.20;;
74375;SDS011;62812;55.188;61.302;2023-04-24T05:28:31;27.20;;;1.63;;
74375;SDS011;62812;55.188;61.302;2023-04-24T05:30:59;8.70;;;1.30;;
74375;SDS011;62812;55.188;61.302;2023-04-24T05:33:28;11.00;;;1.67;;
74375;SDS011;62812;55.188;61.302;2023-04-24T05:35:56;9.32;;;1.30;;
74375;SDS011;62812;55.188;61.302;2023-04-24T05:38:45;5.22;;;1.02;;
74375;SDS011;62812;55.188;61.302;2023-04-24T05:41:13;10.30;;;1.48;;
74375;SDS011;62812;55.188;61.302;2023-04-24T05:43:41;5.72;;;1.42;;
74375;SDS011;62812;55.188;61.302;2023-04-24T05:46:09;6.28;;;1.58;;
74375;SDS011;62812;55.188;61.302;2023-04-24T05:51:32;5.90;;;1.10;;
74375;SDS011;62812;55.188;61.302;2023-04-24T05:53:59;4.00;;;1.10;;
74375;SDS011;62812;55.188;61.302;2023-04-24T05:56:27;4.57;;;1.30;;
74375;SDS011;62812;55.188;61.302;2023-04-24T05:58:55;4.70;;;0.98;;
74375;SDS011;62812;55.188;61.302;2023-04-24T06:01:22;17.55;;;1.63;;
74375;SDS011;62812;55.188;61.302;2023-04-24T06:03:51;17.83;;;1.30;;
74375;SDS011;62812;55.188;61.302;2023-04-24T06:06:19;3.40;;;0.80;;
74375;SDS011;62812;55.188;61.302;2023-04-24T06:08:48;5.00;;;0.80;;
74375;SDS011;62812;55.188;61.302;2023-04-24T06:11:15;4.03;;;0.73;;
74375;SDS011;62812;55.188;61.302;2023-04-24T06:13:44;3.85;;;0.88;;
74375;SDS011;62812;55.188;61.302;2023-04-24T06:16:11;5.53;;;0.60;;
74375;SDS011;62812;55.188;61.302;2023-04-24T06:18:41;3.53;;;0.60;;
74375;SDS011;62812;55.188;61.302;2023-04-24T06:21:09;3.17;;;0.80;;
74375;SDS011;62812;55.188;61.302;2023-04-24T06:23:37;4.28;;;0.80;;
74375;SDS011;62812;55.188;61.302;2023-04-24T06:26:15;2.15;;;0.70;;
74375;SDS011;62812;55.188;61.302;2023-04-24T06:28:44;3.40;;;0.60;;
74375;SDS011;62812;55.188;61.302;2023-04-24T06:31:17;6.55;;;1.02;;
74375;SDS011;62812;55.188;61.302;2023-04-24T06:33:47;2.88;;;0.80;;
74375;SDS011;62812;55.188;61.302;2023-04-24T06:36:19;3.08;;;0.70;;
74375;SDS011;62812;55.188;61.302;2023-04-24T06:41:54;3.47;;;0.90;;
74375;SDS011;62812;55.188;61.302;2023-04-24T06:44:24;4.30;;;0.80;;
74375;SDS011;62812;55.188;61.302;2023-04-24T06:49:19;2.03;;;0.70;;
74375;SDS011;62812;55.188;61.302;2023-04-24T06:51:47;3.28;;;0.95;;
74375;SDS011;62812;55.188;61.302;2023-04-24T06:54:22;3.78;;;0.70;;
74375;SDS011;62812;55.188;61.302;2023-04-24T08:38:38;17.63;;;1.52;;
74375;SDS011;62812;55.188;61.302;2023-04-24T08:50:30;5.93;;;0.90;;
74375;SDS011;62812;55.188;61.302;2023-04-24T08:55:54;4.60;;;0.82;;
74375;SDS011;62812;55.188;61.302;2023-04-24T10:06:32;8.70;;;1.23;;
74375;SDS011;62812;55.188;61.302;2023-04-24T10:09:00;3.20;;;0.80;;
74375;SDS011;62812;55.188;61.302;2023-04-24T10:11:34;4.85;;;0.90;;
74375;SDS011;62812;55.188;61.302;2023-04-24T10:17:11;7.93;;;1.10;;
74375;SDS011;62812;55.188;61.302;2023-04-24T10:19:40;4.68;;;0.90;;
74375;SDS011;62812;55.188;61.302;2023-04-24T10:51:43;8.90;;;1.25;;
74375;SDS011;62812;55.188;61.302;2023-04-24T10:54:25;6.82;;;1.08;;
74375;SDS011;62812;55.188;61.302;2023-04-24T11:12:53;6.18;;;1.35;;
74375;SDS011;62812;55.188;61.302;2023-04-24T11:15:22;6.63;;;1.00;;
74375;SDS011;62812;55.188;61.302;2023-04-24T11:17:50;1.95;;;0.60;;
74375;SDS011;62812;55.188;61.302;2023-04-24T11:20:23;5.05;;;1.08;;
74375;SDS011;62812;55.188;61.302;2023-04-24T11:22:52;3.72;;;0.95;;
74375;SDS011;62812;55.188;61.302;2023-04-24T11:25:30;4.60;;;1.15;;
74375;SDS011;62812;55.188;61.302;2023-04-24T11:28:07;4.30;;;0.98;;
74375;SDS011;62812;55.188;61.302;2023-04-24T12:45:13;12.45;;;2.50;;
74375;SDS011;62812;55.188;61.302;2023-04-24T12:47:41;12.32;;;1.35;;
74375;SDS011;62812;55.188;61.302;2023-04-24T12:50:11;24.98;;;4.03;;
74375;SDS011;62812;55.188;61.302;2023-04-24T12:53:00;17.75;;;1.42;;
74375;SDS011;62812;55.188;61.302;2023-04-24T12:55:28;6.60;;;1.00;;
74375;SDS011;62812;55.188;61.302;2023-04-24T12:57:56;5.55;;;1.17;;
74375;SDS011;62812;55.188;61.302;2023-04-24T13:00:31;4.97;;;1.15;;
74375;SDS011;62812;55.188;61.302;2023-04-24T13:03:19;6.32;;;1.10;;
74375;SDS011;62812;55.188;61.302;2023-04-24T13:05:51;4.68;;;1.15;;
74375;SDS011;62812;55.188;61.302;2023-04-24T13:08:39;11.40;;;2.95;;
74375;SDS011;62812;55.188;61.302;2023-04-24T13:11:13;14.05;;;2.92;;
74375;SDS011;62812;55.188;61.302;2023-04-24T13:13:43;9.93;;;1.80;;
74375;SDS011;62812;55.188;61.302;2023-04-24T13:18:55;5.32;;;1.20;;
74375;SDS011;62812;55.188;61.302;2023-04-24T13:21:23;7.30;;;1.50;;
74375;SDS011;62812;55.188;61.302;2023-04-24T13:23:52;9.10;;;1.13;;
74375;SDS011;62812;55.188;61.302;2023-04-24T13:26:23;4.25;;;1.10;;
74375;SDS011;62812;55.188;61.302;2023-04-24T13:28:51;5.15;;;0.95;;
74375;SDS011;62812;55.188;61.302;2023-04-24T13:31:21;8.23;;;1.40;;
74375;SDS011;62812;55.188;61.302;2023-04-24T13:36:42;5.63;;;0.68;;
74375;SDS011;62812;55.188;61.302;2023-04-24T13:42:55;5.50;;;0.98;;
74375;SDS011;62812;55.188;61.302;2023-04-24T13:45:24;16.73;;;1.85;;
74375;SDS011;62812;55.188;61.302;2023-04-24T13:47:54;8.85;;;1.25;;
74375;SDS011;62812;55.188;61.302;2023-04-24T13:56:48;8.83;;;1.23;;
74375;SDS011;62812;55.188;61.302;2023-04-24T13:59:16;8.02;;;1.67;;
74375;SDS011;62812;55.188;61.302;2023-04-24T14:07:23;2.20;;;0.60;;
74375;SDS011;62812;55.188;61.302;2023-04-24T14:15:57;5.95;;;1.20;;
74375;SDS011;62812;55.188;61.302;2023-04-24T14:21:14;7.85;;;1.10;;
74375;SDS011;62812;55.188;61.302;2023-04-24T14:23:43;8.85;;;1.30;;
74375;SDS011;62812;55.188;61.302;2023-04-24T14:26:12;1.08;;;0.35;;
74375;SDS011;62812;55.188;61.302;2023-04-24T14:28:40;7.68;;;1.42;;
74375;SDS011;62812;55.188;61.302;2023-04-24T14:40:11;8.18;;;1.65;;
74375;SDS011;62812;55.188;61.302;2023-04-24T14:46:27;10.57;;;1.77;;
74375;SDS011;62812;55.188;61.302;2023-04-24T16:16:26;13.05;;;2.22;;
74375;SDS011;62812;55.188;61.302;2023-04-24T16:19:26;19.15;;;3.17;;
74375;SDS011;62812;55.188;61.302;2023-04-24T16:22:12;15.18;;;3.30;;
74375;SDS011;62812;55.188;61.302;2023-04-24T16:24:47;16.77;;;3.47;;
74375;SDS011;62812;55.188;61.302;2023-04-24T16:27:26;13.65;;;3.17;;
74375;SDS011;62812;55.188;61.302;2023-04-24T16:30:03;19.92;;;3.53;;
74375;SDS011;62812;55.188;61.302;2023-04-24T16:32:42;23.17;;;3.75;;
74375;SDS011;62812;55.188;61.302;2023-04-24T16:35:42;21.83;;;3.47;;
74375;SDS011;62812;55.188;61.302;2023-04-24T16:38:49;16.50;;;2.80;;
74375;SDS011;62812;55.188;61.302;2023-04-24T16:41:23;19.33;;;3.45;;
74375;SDS011;62812;55.188;61.302;2023-04-24T18:04:36;9.57;;;2.40;;
74375;SDS011;62812;55.188;61.302;2023-04-24T18:07:05;5.60;;;2.17;;
74375;SDS011;62812;55.188;61.302;2023-04-24T18:09:35;14.00;;;2.40;;
74375;SDS011;62812;55.188;61.302;2023-04-24T18:12:03;13.23;;;3.38;;
74375;SDS011;62812;55.188;61.302;2023-04-24T18:14:35;12.75;;;3.13;;
74375;SDS011;62812;55.188;61.302;2023-04-24T18:17:08;8.88;;;2.33;;
74375;SDS011;62812;55.188;61.302;2023-04-24T18:19:38;14.05;;;2.83;;
74375;SDS011;62812;55.188;61.302;2023-04-24T18:22:05;10.88;;;2.30;;
74375;SDS011;62812;55.188;61.302;2023-04-24T18:24:39;11.55;;;3.05;;
74375;SDS011;62812;55.188;61.302;2023-04-24T18:27:28;8.45;;;2.13;;
74375;SDS011;62812;55.188;61.302;2023-04-24T18:33:05;9.63;;;2.15;;
74375;SDS011;62812;55.188;61.302;2023-04-24T18:38:33;9.15;;;2.20;;
74375;SDS011;62812;55.188;61.302;2023-04-24T18:41:09;12.60;;;4.13;;
74375;SDS011;62812;55.188;61.302;2023-04-24T18:43:39;17.95;;;3.80;;
74375;SDS011;62812;55.188;61.302;2023-04-24T18:46:07;8.05;;;3.10;;
74375;SDS011;62812;55.188;61.302;2023-04-24T18:48:35;9.25;;;2.25;;
74375;SDS011;62812;55.188;61.302;2023-04-24T18:51:09;6.70;;;1.75;;
74375;SDS011;62812;55.188;61.302;2023-04-24T18:53:36;8.68;;;2.20;;
74375;SDS011;62812;55.188;61.302;2023-04-24T18:56:05;10.60;;;2.13;;
74375;SDS011;62812;55.188;61.302;2023-04-24T18:58:32;6.78;;;1.92;;
74375;SDS011;62812;55.188;61.302;2023-04-24T19:01:01;6.18;;;2.00;;
74375;SDS011;62812;55.188;61.302;2023-04-24T19:03:29;8.68;;;2.55;;
74375;SDS011;62812;55.188;61.302;2023-04-24T19:08:58;19.90;;;5.63;;
74375;SDS011;62812;55.188;61.302;2023-04-24T19:11:41;14.25;;;5.05;;
74375;SDS011;62812;55.188;61.302;2023-04-24T19:14:11;18.13;;;5.15;;
74375;SDS011;62812;55.188;61.302;2023-04-24T19:23:32;11.73;;;3.42;;
74375;SDS011;62812;55.188;61.302;2023-04-24T19:26:03;11.50;;;2.95;;
74375;SDS011;62812;55.188;61.302;2023-04-24T19:28:30;11.13;;;2.78;;
74375;SDS011;62812;55.188;61.302;2023-04-24T19:30:57;13.52;;;4.00;;
74375;SDS011;62812;55.188;61.302;2023-04-24T19:33:25;11.90;;;3.38;;
74375;SDS011;62812;55.188;61.302;2023-04-24T19:35:52;14.95;;;4.72;;
74375;SDS011;62812;55.188;61.302;2023-04-24T19:38:20;16.13;;;3.92;;
74375;SDS011;62812;55.188;61.302;2023-04-24T19:40:48;10.90;;;2.97;;
74375;SDS011;62812;55.188;61.302;2023-04-24T19:43:19;18.58;;;4.70;;
74375;SDS011;62812;55.188;61.302;2023-04-24T19:45:46;10.57;;;2.53;;
74375;SDS011;62812;55.188;61.302;2023-04-24T19:50:42;13.05;;;3.92;;
74375;SDS011;62812;55.188;61.302;2023-04-24T19:53:09;16.10;;;3.78;;
74375;SDS011;62812;55.188;61.302;2023-04-24T19:55:37;6.85;;;1.88;;
74375;SDS011;62812;55.188;61.302;2023-04-24T19:58:04;8.80;;;2.53;;
74375;SDS011;62812;55.188;61.302;2023-04-24T20:00:34;10.77;;;3.20;;
74375;SDS011;62812;55.188;61.302;2023-04-24T20:03:02;9.63;;;2.97;;
74375;SDS011;62812;55.188;61.302;2023-04-24T20:05:30;6.45;;;1.45;;
74375;SDS011;62812;55.188;61.302;2023-04-24T20:07:58;9.98;;;2.58;;
74375;SDS011;62812;55.188;61.302;2023-04-24T20:10:25;10.68;;;2.60;;
74375;SDS011;62812;55.188;61.302;2023-04-24T20:12:54;7.25;;;2.00;;
74375;SDS011;62812;55.188;61.302;2023-04-24T20:15:27;6.43;;;1.40;;
74375;SDS011;62812;55.188;61.302;2023-04-24T20:17:56;7.75;;;1.60;;
74375;SDS011;62812;55.188;61.302;2023-04-24T20:20:23;6.28;;;1.80;;
74375;SDS011;62812;55.188;61.302;2023-04-24T20:22:51;6.90;;;1.52;;
74375;SDS011;62812;55.188;61.302;2023-04-24T20:25:18;4.85;;;1.77;;
74375;SDS011;62812;55.188;61.302;2023-04-24T20:27:47;7.38;;;1.63;;
74375;SDS011;62812;55.188;61.302;2023-04-24T20:30:14;7.93;;;1.88;;
74375;SDS011;62812;55.188;61.302;2023-04-24T20:32:43;6.95;;;1.52;;
74375;SDS011;62812;55.188;61.302;2023-04-24T20:35:12;4.45;;;1.40;;
74375;SDS011;62812;55.188;61.302;2023-04-24T20:37:39;5.20;;;1.55;;
74375;SDS011;62812;55.188;61.302;2023-04-24T20:40:08;7.68;;;1.90;;
74375;SDS011;62812;55.188;61.302;2023-04-24T20:42:36;5.13;;;1.70;;
74375;SDS011;62812;55.188;61.302;2023-04-24T20:45:03;8.32;;;1.70;;
74375;SDS011;62812;55.188;61.302;2023-04-24T20:47:31;3.75;;;1.30;;
74375;SDS011;62812;55.188;61.302;2023-04-24T20:49:59;4.22;;;1.50;;
74375;SDS011;62812;55.188;61.302;2023-04-24T20:52:29;4.63;;;1.30;;
74375;SDS011;62812;55.188;61.302;2023-04-24T20:54:56;6.97;;;1.60;;
74375;SDS011;62812;55.188;61.302;2023-04-24T20:57:23;3.95;;;1.27;;
74375;SDS011;62812;55.188;61.302;2023-04-24T20:59:51;4.30;;;1.60;;
74375;SDS011;62812;55.188;61.302;2023-04-24T21:02:21;5.35;;;1.42;;
74375;SDS011;62812;55.188;61.302;2023-04-24T21:04:49;4.40;;;1.40;;
74375;SDS011;62812;55.188;61.302;2023-04-24T21:07:17;7.03;;;1.30;;
74375;SDS011;62812;55.188;61.302;2023-04-24T21:09:50;5.95;;;1.30;;
74375;SDS011;62812;55.188;61.302;2023-04-24T21:12:18;3.58;;;1.02;;
74375;SDS011;62812;55.188;61.302;2023-04-24T21:14:45;4.93;;;1.67;;
74375;SDS011;62812;55.188;61.302;2023-04-24T21:17:12;4.20;;;1.50;;
74375;SDS011;62812;55.188;61.302;2023-04-24T21:19:40;6.88;;;1.58;;
74375;SDS011;62812;55.188;61.302;2023-04-24T21:22:07;5.40;;;1.17;;
74375;SDS011;62812;55.188;61.302;2023-04-24T21:24:34;8.10;;;1.45;;
74375;SDS011;62812;55.188;61.302;2023-04-24T21:27:03;3.97;;;1.23;;
74375;SDS011;62812;55.188;61.302;2023-04-24T21:29:31;4.43;;;1.20;;
74375;SDS011;62812;55.188;61.302;2023-04-24T21:31:58;3.75;;;1.17;;
74375;SDS011;62812;55.188;61.302;2023-04-24T21:34:25;5.43;;;1.23;;
74375;SDS011;62812;55.188;61.302;2023-04-24T21:36:52;4.03;;;1.08;;
74375;SDS011;62812;55.188;61.302;2023-04-24T21:39:19;3.88;;;1.30;;
74375;SDS011;62812;55.188;61.302;2023-04-24T21:41:46;3.63;;;1.17;;
74375;SDS011;62812;55.188;61.302;2023-04-24T21:44:14;6.03;;;1.60;;
74375;SDS011;62812;55.188;61.302;2023-04-24T21:46:41;4.82;;;1.33;;
74375;SDS011;62812;55.188;61.302;2023-04-24T21:49:08;5.15;;;1.40;;
74375;SDS011;62812;55.188;61.302;2023-04-24T21:51:35;4.03;;;1.35;;
74375;SDS011;62812;55.188;61.302;2023-04-24T21:54:02;4.25;;;1.35;;
74375;SDS011;62812;55.188;61.302;2023-04-24T21:56:29;5.75;;;1.48;;
74375;SDS011;62812;55.188;61.302;2023-04-24T21:58:56;6.63;;;1.33;;
74375;SDS011;62812;55.188;61.302;2023-04-24T22:01:25;3.15;;;1.20;;
74375;SDS011;62812;55.188;61.302;2023-04-24T22:03:52;3.30;;;1.20;;
74375;SDS011;62812;55.188;61.302;2023-04-24T22:06:18;4.70;;;1.05;;
74375;SDS011;62812;55.188;61.302;2023-04-24T22:08:47;5.63;;;1.48;;
74375;SDS011;62812;55.188;61.302;2023-04-24T22:11:15;3.95;;;1.30;;
74375;SDS011;62812;55.188;61.302;2023-04-24T22:13:42;6.18;;;1.45;;
74375;SDS011;62812;55.188;61.302;2023-04-24T22:16:09;7.78;;;1.40;;
74375;SDS011;62812;55.188;61.302;2023-04-24T22:18:38;3.53;;;1.10;;
74375;SDS011;62812;55.188;61.302;2023-04-24T22:21:05;7.65;;;1.52;;
74375;SDS011;62812;55.188;61.302;2023-04-24T22:23:31;3.55;;;1.17;;
74375;SDS011;62812;55.188;61.302;2023-04-24T22:25:59;5.05;;;1.23;;
74375;SDS011;62812;55.188;61.302;2023-04-24T22:28:26;4.13;;;1.20;;
74375;SDS011;62812;55.188;61.302;2023-04-24T22:30:53;5.28;;;1.35;;
74375;SDS011;62812;55.188;61.302;2023-04-24T22:33:20;4.53;;;1.20;;
74375;SDS011;62812;55.188;61.302;2023-04-24T22:35:48;5.50;;;1.50;;
74375;SDS011;62812;55.188;61.302;2023-04-24T22:38:15;3.83;;;1.33;;
74375;SDS011;62812;55.188;61.302;2023-04-24T22:40:42;5.93;;;1.30;;
74375;SDS011;62812;55.188;61.302;2023-04-24T22:43:09;5.80;;;1.27;;
74375;SDS011;62812;55.188;61.302;2023-04-24T22:45:36;6.15;;;1.40;;
74375;SDS011;62812;55.188;61.302;2023-04-24T22:48:03;7.32;;;1.50;;
74375;SDS011;62812;55.188;61.302;2023-04-24T22:50:30;4.90;;;1.38;;
74375;SDS011;62812;55.188;61.302;2023-04-24T22:52:58;3.63;;;1.40;;
74375;SDS011;62812;55.188;61.302;2023-04-24T22:55:25;3.47;;;1.40;;
74375;SDS011;62812;55.188;61.302;2023-04-24T22:57:51;3.53;;;1.30;;
74375;SDS011;62812;55.188;61.302;2023-04-24T23:00:19;5.28;;;1.52;;
74375;SDS011;62812;55.188;61.302;2023-04-24T23:02:46;3.22;;;1.30;;
74375;SDS011;62812;55.188;61.302;2023-04-24T23:05:12;5.20;;;1.65;;
74375;SDS011;62812;55.188;61.302;2023-04-24T23:07:39;4.38;;;1.50;;
74375;SDS011;62812;55.188;61.302;2023-04-24T23:10:09;4.63;;;1.40;;
74375;SDS011;62812;55.188;61.302;2023-04-24T23:12:37;4.43;;;1.30;;
74375;SDS011;62812;55.188;61.302;2023-04-24T23:15:04;5.28;;;1.52;;
74375;SDS011;62812;55.188;61.302;2023-04-24T23:17:32;4.03;;;1.52;;
74375;SDS011;62812;55.188;61.302;2023-04-24T23:19:59;4.00;;;1.52;;
74375;SDS011;62812;55.188;61.302;2023-04-24T23:22:26;8.80;;;1.50;;
74375;SDS011;62812;55.188;61.302;2023-04-24T23:24:53;5.30;;;1.48;;
74375;SDS011;62812;55.188;61.302;2023-04-24T23:27:22;4.72;;;1.55;;
74375;SDS011;62812;55.188;61.302;2023-04-24T23:29:49;10.95;;;1.50;;
74375;SDS011;62812;55.188;61.302;2023-04-24T23:32:16;5.93;;;1.60;;
74375;SDS011;62812;55.188;61.302;2023-04-24T23:34:43;8.15;;;1.90;;
74375;SDS011;62812;55.188;61.302;2023-04-24T23:37:11;6.82;;;1.50;;
74375;SDS011;62812;55.188;61.302;2023-04-24T23:39:38;4.85;;;1.55;;
74375;SDS011;62812;55.188;61.302;2023-04-24T23:42:04;5.43;;;1.60;;
74375;SDS011;62812;55.188;61.302;2023-04-24T23:44:35;5.85;;;1.70;;
74375;SDS011;62812;55.188;61.302;2023-04-24T23:47:02;6.13;;;1.63;;
74375;SDS011;62812;55.188;61.302;2023-04-24T23:49:28;8.10;;;1.60;;
74375;SDS011;62812;55.188;61.302;2023-04-24T23:51:56;6.68;;;1.70;;
74375;SDS011;62812;55.188;61.302;2023-04-24T23:54:23;5.57;;;1.70;;
74375;SDS011;62812;55.188;61.302;2023-04-24T23:56:51;4.70;;;1.42;;
74375;SDS011;62812;55.188;61.302;2023-04-24T23:59:18;4.68;;;1.50;;
